Hovedside
METAR-TAF:

METAR-TAF

Lufthavner :

Latakia, Syria

breddegrad: 35-32N, lengdegrad: 035-46E, høyde over havet: 7 m

Gjeldene værobservasjon

Denne rapporten ble laget for 57 minutter siden, klokken 04:00 UTC
Vind 6 kt fra Øst-sørøst
Temperatur 17°C
Luftfuktighet 82%
Trykk 1014 hPa
Sikt: 8000 m
Spredte skyer i en høyde av 3000 ft
Brutte skyer i en høyde av 10000 ft

METAR: OSLK 190400Z 11006KT 8000 SCT030 BKN100 17/14 Q1014

Tid: 07:57 (04:57 UTC)

Varsel

Denne rapporten ble laget for 5 timer og 57 minutter siden, klokken 23:00 UTC
Varsel gyldig fra 19. klokken 00 UTC til 19. klokken 24 UTC
Vind 10 kt fra Vest-nordvest
Sikt 10 km eller mer
ingen skyer under 1500 m og ingen bygeskyer

TAF: OSLK 182300Z 1900/1924 30010KT CAVOK

Værobservasjoner og værvarsel for over 4000 flyplasser (METAR- og TAF-rapporter).

Tilgjengelige stasjoner er representert av de røde og gule prikkene på kartet.

Hold musepekeren over prikken for å se navnet på stasjonen.

Klikk så for å se værobservasjoner og -varsler.

For å forandre kartet kan du klikke på den grønne knappen med svart kryss for å zoome inn, på den grønne knappen med strek for å zoome ut, eller på de grønne pilene for å se tilstøtende kart.


METAR-TAF: